createdAt,value
2023-05-17T00:01:31.804Z,10.00
2023-05-17T00:04:00.815Z,9.80
2023-05-17T00:06:28.494Z,9.80
2023-05-17T00:08:56.005Z,9.70
2023-05-17T00:11:24.452Z,9.60
2023-05-17T00:13:52.108Z,9.60
2023-05-17T00:16:19.696Z,9.60
2023-05-17T00:18:47.446Z,9.80
2023-05-17T00:21:15.078Z,9.80
2023-05-17T00:23:42.674Z,9.70
2023-05-17T00:26:10.347Z,9.90
2023-05-17T00:28:37.952Z,9.80
2023-05-17T00:31:05.555Z,9.80
2023-05-17T00:33:33.230Z,9.60
2023-05-17T00:36:00.825Z,9.60
2023-05-17T00:38:28.446Z,9.80
2023-05-17T00:40:56.083Z,9.70
2023-05-17T00:43:23.683Z,9.60
2023-05-17T00:45:52.062Z,9.70
2023-05-17T00:48:20.535Z,9.70
2023-05-17T00:50:48.086Z,9.60
2023-05-17T00:53:15.662Z,9.60
2023-05-17T00:55:45.995Z,9.50
2023-05-17T00:58:14.372Z,9.40
2023-05-17T01:00:42.755Z,9.30
2023-05-17T01:03:11.244Z,9.20
2023-05-17T01:05:38.817Z,9.20
2023-05-17T01:08:06.440Z,9.20
2023-05-17T01:10:40.111Z,9.20
2023-05-17T01:13:10.454Z,9.10
2023-05-17T01:15:38.058Z,9.10
2023-05-17T01:18:36.285Z,9.00
2023-05-17T01:21:03.819Z,9.20
2023-05-17T01:23:46.813Z,9.10
2023-05-17T01:26:17.667Z,9.00
2023-05-17T01:28:45.306Z,8.90
2023-05-17T01:31:12.977Z,8.90
2023-05-17T01:33:40.707Z,8.80
2023-05-17T01:36:08.233Z,8.80
2023-05-17T01:38:35.888Z,8.80
2023-05-17T01:41:12.352Z,8.80
2023-05-17T01:43:42.656Z,8.80
2023-05-17T01:46:12.965Z,8.80
2023-05-17T01:48:41.391Z,8.80
2023-05-17T01:51:09.028Z,8.80
2023-05-17T01:53:39.560Z,8.80
2023-05-17T01:56:10.437Z,8.90
2023-05-17T01:58:38.290Z,8.90
2023-05-17T02:01:05.912Z,8.90
2023-05-17T02:03:33.541Z,8.90
2023-05-17T02:06:01.188Z,8.90
2023-05-17T02:08:28.790Z,8.90
2023-05-17T02:10:56.380Z,8.90
2023-05-17T02:13:24.032Z,8.90
2023-05-17T02:15:51.642Z,8.90
2023-05-17T02:18:19.455Z,8.90
2023-05-17T02:20:48.162Z,8.90
2023-05-17T02:23:15.787Z,8.90
2023-05-17T02:25:43.389Z,8.90
2023-05-17T02:28:11.046Z,8.80
2023-05-17T02:30:38.727Z,8.80
2023-05-17T02:33:06.433Z,8.70
2023-05-17T02:35:34.020Z,8.60
2023-05-17T02:38:02.399Z,8.80
2023-05-17T02:40:30.774Z,8.80
2023-05-17T02:42:59.551Z,8.70
2023-05-17T02:45:28.232Z,8.70
2023-05-17T02:47:55.631Z,8.60
2023-05-17T02:50:23.214Z,8.60
2023-05-17T02:52:50.840Z,8.60
2023-05-17T02:55:18.465Z,8.80
2023-05-17T02:57:46.383Z,8.80
2023-05-17T03:00:13.983Z,8.70
2023-05-17T03:02:41.637Z,8.60
2023-05-17T03:05:09.252Z,8.60
2023-05-17T03:07:36.871Z,8.80
2023-05-17T03:10:04.468Z,8.70
2023-05-17T03:12:32.129Z,8.60
2023-05-17T03:14:59.740Z,8.80
2023-05-17T03:17:27.475Z,8.70
2023-05-17T03:19:55.355Z,8.60
2023-05-17T03:22:22.868Z,8.50
2023-05-17T03:24:51.264Z,8.30
2023-05-17T03:27:18.981Z,8.30
2023-05-17T03:29:47.275Z,8.20
2023-05-17T03:32:14.896Z,8.10
2023-05-17T03:34:42.532Z,8.00
2023-05-17T03:37:10.146Z,8.00
2023-05-17T03:39:37.741Z,7.90
2023-05-17T03:42:05.678Z,7.90
2023-05-17T03:44:33.287Z,7.90
2023-05-17T03:47:00.913Z,7.80
2023-05-17T03:49:29.097Z,7.80
2023-05-17T03:51:56.730Z,8.00
2023-05-17T03:54:24.317Z,8.20
2023-05-17T03:56:51.997Z,8.20
2023-05-17T03:59:19.612Z,8.00
2023-05-17T04:01:47.236Z,7.90
2023-05-17T04:04:15.298Z,7.80
2023-05-17T04:06:42.900Z,7.80
2023-05-17T04:09:10.487Z,7.70
2023-05-17T04:11:38.129Z,7.60
2023-05-17T04:14:05.769Z,7.60
2023-05-17T04:16:33.337Z,7.50
2023-05-17T04:19:01.132Z,7.50
2023-05-17T04:21:28.613Z,7.40
2023-05-17T04:23:56.992Z,7.40
2023-05-17T04:26:24.658Z,7.40
2023-05-17T04:28:52.272Z,7.40
2023-05-17T04:31:19.870Z,7.40
2023-05-17T04:33:47.578Z,7.40
2023-05-17T04:36:15.125Z,7.40
2023-05-17T04:38:42.814Z,7.40
2023-05-17T04:41:10.746Z,7.70
2023-05-17T04:43:39.116Z,7.60
2023-05-17T04:46:06.729Z,7.60
2023-05-17T04:48:34.416Z,7.60
2023-05-17T04:51:02.731Z,7.50
2023-05-17T04:53:31.099Z,7.50
2023-05-17T04:55:59.496Z,7.50
2023-05-17T04:58:27.116Z,7.50
2023-05-17T05:00:54.729Z,7.60
2023-05-17T05:03:22.411Z,7.60
2023-05-17T05:05:49.986Z,7.80
2023-05-17T05:08:17.600Z,7.90
2023-05-17T05:10:46.009Z,8.00
2023-05-17T05:13:13.704Z,7.90
2023-05-17T05:15:41.194Z,8.00
2023-05-17T05:18:08.958Z,8.10
2023-05-17T05:20:39.238Z,8.20
2023-05-17T05:23:06.861Z,8.30
2023-05-17T05:25:34.517Z,8.40
2023-05-17T05:28:02.126Z,8.40
2023-05-17T05:30:29.720Z,8.50
2023-05-17T05:32:57.519Z,8.50
2023-05-17T05:35:25.005Z,8.60
2023-05-17T05:37:52.623Z,8.70
2023-05-17T05:40:21.093Z,8.80
2023-05-17T05:42:48.697Z,8.80
2023-05-17T05:45:16.305Z,8.80
2023-05-17T05:47:44.139Z,8.90
2023-05-17T05:50:12.763Z,9.00
2023-05-17T05:52:39.180Z,9.10
2023-05-17T05:55:07.167Z,9.10
2023-05-17T05:57:35.551Z,9.30
2023-05-17T06:00:03.164Z,9.20
2023-05-17T06:02:30.909Z,9.30
2023-05-17T06:04:58.510Z,9.40
2023-05-17T06:07:26.055Z,9.40
2023-05-17T06:09:53.718Z,9.50
2023-05-17T06:12:21.320Z,9.50
2023-05-17T06:14:49.696Z,9.60
2023-05-17T06:17:17.629Z,9.60
2023-05-17T06:19:45.372Z,9.70
2023-05-17T06:22:12.886Z,9.80
2023-05-17T06:24:41.343Z,10.00
2023-05-17T06:27:08.953Z,10.00
2023-05-17T06:29:36.561Z,10.10
2023-05-17T06:32:05.434Z,10.20
2023-05-17T06:34:31.846Z,10.30
2023-05-17T06:36:59.463Z,10.40
2023-05-17T06:39:27.154Z,10.50
2023-05-17T06:41:54.753Z,10.60
2023-05-17T06:44:22.387Z,10.90
2023-05-17T06:46:50.796Z,11.00
2023-05-17T06:49:18.391Z,11.00
2023-05-17T06:51:46.008Z,11.00
2023-05-17T06:54:13.669Z,11.10
2023-05-17T06:56:41.285Z,11.10
2023-05-17T06:59:08.896Z,11.20
2023-05-17T07:01:36.537Z,11.30
2023-05-17T07:04:04.257Z,11.30
2023-05-17T07:06:31.763Z,11.40
2023-05-17T07:08:59.451Z,11.40
2023-05-17T07:11:27.178Z,11.50
2023-05-17T07:13:54.785Z,11.60
2023-05-17T07:16:22.426Z,11.70
2023-05-17T07:18:50.102Z,11.70
2023-05-17T07:21:17.634Z,11.80
2023-05-17T07:23:45.278Z,11.90
2023-05-17T07:26:13.652Z,12.40
2023-05-17T07:28:41.263Z,12.40
2023-05-17T07:31:08.907Z,12.50
2023-05-17T07:33:36.532Z,12.60
2023-05-17T07:36:04.196Z,12.60
2023-05-17T07:38:31.838Z,12.60
2023-05-17T07:40:59.443Z,12.60
2023-05-17T07:43:27.053Z,12.60
2023-05-17T07:45:54.719Z,12.90
2023-05-17T07:48:23.644Z,12.90
2023-05-17T07:50:49.951Z,13.20
2023-05-17T07:53:17.597Z,13.50
2023-05-17T07:55:47.125Z,13.50
2023-05-17T07:58:14.747Z,13.70
2023-05-17T08:00:42.497Z,13.80
2023-05-17T08:03:10.328Z,14.00
2023-05-17T08:05:37.716Z,14.00
2023-05-17T08:08:05.315Z,13.90
2023-05-17T08:10:32.975Z,13.90
2023-05-17T08:13:00.552Z,14.20
2023-05-17T08:15:28.435Z,14.40
2023-05-17T08:17:56.026Z,14.30
2023-05-17T08:20:23.572Z,14.10
2023-05-17T08:22:51.192Z,14.00
2023-05-17T08:25:18.795Z,13.80
2023-05-17T08:27:46.408Z,13.70
2023-05-17T08:30:18.017Z,13.70
2023-05-17T08:32:41.731Z,13.70
2023-05-17T08:35:09.350Z,13.70
2023-05-17T08:37:36.963Z,13.60
2023-05-17T08:40:04.618Z,13.70
2023-05-17T08:42:32.944Z,13.90
2023-05-17T08:45:01.372Z,14.00
2023-05-17T08:47:31.474Z,14.00
2023-05-17T08:50:01.557Z,14.10
2023-05-17T08:52:32.705Z,14.20
2023-05-17T08:55:00.279Z,14.20
2023-05-17T08:57:28.660Z,14.30
2023-05-17T08:59:56.301Z,14.30
2023-05-17T09:02:24.766Z,14.40
2023-05-17T09:04:54.992Z,14.30
2023-05-17T09:07:25.544Z,14.40
2023-05-17T09:09:53.909Z,14.40
2023-05-17T09:12:23.457Z,14.30
2023-05-17T09:14:49.162Z,14.30
2023-05-17T09:17:19.721Z,14.30
2023-05-17T09:19:47.538Z,14.20
2023-05-17T09:22:15.001Z,14.20
2023-05-17T09:24:43.414Z,14.30
2023-05-17T09:27:11.012Z,14.30
2023-05-17T09:29:38.648Z,14.30
2023-05-17T09:32:15.126Z,14.30
2023-05-17T09:34:42.762Z,14.50
2023-05-17T09:37:13.220Z,14.50
2023-05-17T09:39:41.000Z,14.40
2023-05-17T09:42:08.623Z,14.40
2023-05-17T09:44:51.546Z,14.40
2023-05-17T09:47:27.784Z,14.40
2023-05-17T09:49:56.066Z,14.50
2023-05-17T09:52:23.673Z,14.50
2023-05-17T09:54:54.341Z,14.50
2023-05-17T09:57:21.953Z,14.50
2023-05-17T09:59:49.582Z,14.60
2023-05-17T10:02:20.797Z,14.70
2023-05-17T10:04:48.345Z,14.70
2023-05-17T10:07:15.910Z,14.70
2023-05-17T10:09:43.555Z,14.90
2023-05-17T10:12:11.187Z,15.00
2023-05-17T10:14:38.855Z,15.00
2023-05-17T10:17:06.467Z,15.00
2023-05-17T10:19:34.147Z,15.00
2023-05-17T10:22:11.464Z,15.10
2023-05-17T10:24:29.832Z,15.40
2023-05-17T10:26:57.477Z,15.40
2023-05-17T10:29:25.093Z,15.50
2023-05-17T10:31:52.716Z,15.60
2023-05-17T10:34:20.442Z,15.60
2023-05-17T10:36:51.400Z,15.90
2023-05-17T10:39:19.058Z,15.90
2023-05-17T10:41:46.697Z,15.90
2023-05-17T10:44:14.285Z,15.80
2023-05-17T10:46:42.256Z,15.80
2023-05-17T10:49:09.933Z,16.10
2023-05-17T10:51:37.469Z,16.20
2023-05-17T10:54:05.117Z,16.20
2023-05-17T10:56:33.493Z,16.40
2023-05-17T10:59:19.853Z,16.30
2023-05-17T11:01:55.847Z,16.40
2023-05-17T11:04:35.373Z,16.70
2023-05-17T11:07:17.955Z,16.70
2023-05-17T11:09:46.309Z,16.70
2023-05-17T11:12:13.925Z,16.70
2023-05-17T11:14:53.558Z,16.80
2023-05-17T11:17:36.063Z,16.90
2023-05-17T11:20:06.578Z,16.90
2023-05-17T11:22:39.839Z,16.80
2023-05-17T11:25:11.181Z,17.00
2023-05-17T11:27:48.782Z,16.90
2023-05-17T11:30:22.349Z,16.90
2023-05-17T11:32:50.023Z,16.70
2023-05-17T11:35:20.595Z,16.70
2023-05-17T11:37:48.233Z,16.60
2023-05-17T11:40:15.930Z,16.50
2023-05-17T11:42:43.458Z,16.50
2023-05-17T11:45:11.159Z,16.50
2023-05-17T11:47:38.892Z,16.50
2023-05-17T11:50:06.445Z,16.70
2023-05-17T11:52:34.876Z,16.70
2023-05-17T11:55:02.552Z,16.70
2023-05-17T11:57:30.110Z,16.70
2023-05-17T12:00:00.666Z,16.80
2023-05-17T12:02:29.060Z,17.20
2023-05-17T12:04:56.827Z,17.20
2023-05-17T12:07:24.262Z,17.30
2023-05-17T12:09:52.655Z,17.20
2023-05-17T12:12:21.035Z,17.20
2023-05-17T12:14:49.427Z,17.20
2023-05-17T12:17:19.697Z,17.20
2023-05-17T12:19:47.406Z,17.20
2023-05-17T12:22:15.722Z,17.40
2023-05-17T12:24:43.579Z,17.40
2023-05-17T12:27:11.077Z,17.40
2023-05-17T12:29:39.485Z,17.40
2023-05-17T12:32:07.044Z,17.40
2023-05-17T12:34:35.463Z,17.50
2023-05-17T12:37:03.078Z,17.50
2023-05-17T12:39:30.680Z,17.50
2023-05-17T12:41:58.297Z,17.50
2023-05-17T12:44:26.702Z,17.60
2023-05-17T12:46:54.337Z,17.60
2023-05-17T12:49:21.903Z,17.70
2023-05-17T12:51:49.554Z,17.70
2023-05-17T12:54:29.310Z,18.00
2023-05-17T12:56:57.770Z,18.10
2023-05-17T12:59:25.740Z,18.10
2023-05-17T13:01:52.973Z,18.10
2023-05-17T13:04:20.718Z,18.30
2023-05-17T13:06:51.218Z,18.20
2023-05-17T13:09:18.885Z,18.00
2023-05-17T13:11:52.708Z,17.90
2023-05-17T13:14:46.548Z,17.90
2023-05-17T13:17:12.739Z,17.90
2023-05-17T13:19:40.414Z,17.90
2023-05-17T13:22:08.740Z,17.90
2023-05-17T13:24:36.398Z,17.90
2023-05-17T13:27:04.002Z,17.90
2023-05-17T13:29:38.768Z,18.00
2023-05-17T13:31:59.287Z,18.10
2023-05-17T13:34:27.671Z,18.10
2023-05-17T13:36:55.277Z,18.10
2023-05-17T13:39:22.915Z,18.20
2023-05-17T13:41:50.552Z,18.30
2023-05-17T13:44:18.893Z,18.30
2023-05-17T13:46:46.613Z,18.30
2023-05-17T13:49:14.276Z,18.30
2023-05-17T13:51:41.822Z,18.60
2023-05-17T13:54:10.232Z,18.70
2023-05-17T13:56:37.845Z,18.70
2023-05-17T13:59:05.437Z,18.80
2023-05-17T14:01:33.111Z,18.80
2023-05-17T14:04:00.978Z,18.90
2023-05-17T14:06:28.490Z,18.80
2023-05-17T14:08:56.717Z,18.80
2023-05-17T14:11:24.326Z,18.80
2023-05-17T14:13:51.953Z,18.90
2023-05-17T14:16:19.600Z,18.90
2023-05-17T14:18:47.389Z,18.90
2023-05-17T14:21:14.880Z,18.90
2023-05-17T14:23:43.307Z,19.10
2023-05-17T14:26:10.918Z,19.00
2023-05-17T14:28:39.289Z,19.30
2023-05-17T14:31:07.740Z,19.40
2023-05-17T14:33:35.426Z,19.30
2023-05-17T14:36:03.772Z,19.50
2023-05-17T14:38:31.368Z,19.50
2023-05-17T14:40:59.008Z,19.60
2023-05-17T14:43:26.564Z,19.70
2023-05-17T14:45:54.243Z,19.80
2023-05-17T14:48:22.337Z,19.80
2023-05-17T14:50:49.750Z,20.00
2023-05-17T14:53:17.410Z,20.10
2023-05-17T14:55:45.001Z,20.00
2023-05-17T14:58:12.606Z,20.00
2023-05-17T15:00:40.492Z,20.00
2023-05-17T15:03:08.230Z,20.00
2023-05-17T15:05:36.502Z,20.10
2023-05-17T15:08:04.159Z,20.10
2023-05-17T15:10:31.806Z,20.20
2023-05-17T15:12:59.394Z,20.40
2023-05-17T15:15:27.145Z,20.60
2023-05-17T15:17:54.714Z,20.60
2023-05-17T15:20:22.364Z,20.60
2023-05-17T15:22:49.941Z,20.60
2023-05-17T15:25:18.317Z,20.60
2023-05-17T15:27:46.687Z,20.50
2023-05-17T15:30:14.357Z,20.50
2023-05-17T15:32:42.779Z,20.40
2023-05-17T15:35:10.346Z,20.40
2023-05-17T15:37:38.026Z,20.40
2023-05-17T15:40:08.708Z,20.40
2023-05-17T15:42:37.145Z,20.60
2023-05-17T15:45:04.754Z,20.60
2023-05-17T15:47:42.553Z,20.60
2023-05-17T15:50:00.721Z,20.60
2023-05-17T15:52:28.373Z,20.70
2023-05-17T15:54:55.966Z,20.80
2023-05-17T15:57:23.601Z,20.90
2023-05-17T15:59:51.262Z,20.90
2023-05-17T16:02:18.891Z,21.20
2023-05-17T16:04:46.528Z,21.10
2023-05-17T16:07:14.178Z,21.00
2023-05-17T16:09:41.802Z,21.00
2023-05-17T16:12:09.415Z,21.00
2023-05-17T16:14:37.404Z,20.90
2023-05-17T16:17:05.022Z,20.90
2023-05-17T16:19:32.681Z,21.00
2023-05-17T16:22:00.283Z,21.00
2023-05-17T16:24:28.649Z,21.30
2023-05-17T16:26:57.020Z,21.30
2023-05-17T16:29:24.668Z,21.20
2023-05-17T16:31:52.291Z,21.20
2023-05-17T16:34:19.992Z,21.30
2023-05-17T16:36:47.549Z,21.20
2023-05-17T16:39:15.174Z,21.20
2023-05-17T16:41:42.790Z,21.10
2023-05-17T16:44:10.443Z,21.20
2023-05-17T16:46:38.122Z,21.20
2023-05-17T16:49:05.633Z,21.10
2023-05-17T16:51:33.307Z,21.00
2023-05-17T16:54:00.881Z,21.00
2023-05-17T16:56:28.521Z,21.00
2023-05-17T16:58:56.392Z,21.00
2023-05-17T17:01:24.033Z,21.10
2023-05-17T17:03:51.644Z,21.10
2023-05-17T17:06:19.271Z,20.90
2023-05-17T17:08:46.893Z,20.90
2023-05-17T17:11:14.492Z,20.80
2023-05-17T17:13:42.135Z,20.70
2023-05-17T17:16:09.772Z,20.60
2023-05-17T17:18:38.913Z,20.60
2023-05-17T17:21:07.482Z,20.80
2023-05-17T17:23:33.386Z,20.90
2023-05-17T17:26:01.015Z,20.90
2023-05-17T17:28:28.632Z,20.80
2023-05-17T17:30:56.243Z,20.70
2023-05-17T17:33:23.913Z,20.60
2023-05-17T17:35:51.525Z,20.40
2023-05-17T17:38:20.142Z,20.30
2023-05-17T17:40:47.761Z,20.20
2023-05-17T17:43:15.696Z,19.70
2023-05-17T17:45:43.313Z,19.60
2023-05-17T17:48:10.996Z,19.20
2023-05-17T17:50:39.612Z,18.50
2023-05-17T17:53:07.253Z,18.50
2023-05-17T17:55:34.856Z,18.20
2023-05-17T17:58:03.037Z,17.90
2023-05-17T18:00:30.950Z,17.70
2023-05-17T18:02:58.260Z,17.40
2023-05-17T18:05:25.870Z,17.40
2023-05-17T18:07:53.475Z,17.10
2023-05-17T18:10:21.109Z,16.90
2023-05-17T18:12:50.954Z,16.90
2023-05-17T18:15:16.383Z,16.70
2023-05-17T18:17:44.036Z,16.70
2023-05-17T18:20:11.659Z,16.50
2023-05-17T18:22:39.272Z,16.30
2023-05-17T18:25:06.874Z,16.10
2023-05-17T18:27:34.889Z,16.20
2023-05-17T18:30:02.492Z,16.00
2023-05-17T18:32:30.281Z,15.80
2023-05-17T18:34:57.774Z,15.60
2023-05-17T18:37:25.394Z,15.50
2023-05-17T18:39:53.016Z,15.40
2023-05-17T18:42:20.954Z,15.20
2023-05-17T18:44:48.581Z,15.10
2023-05-17T18:47:16.268Z,15.00
2023-05-17T18:49:43.822Z,14.90
2023-05-17T18:52:12.208Z,14.70
2023-05-17T18:54:41.098Z,14.60
2023-05-17T18:57:08.710Z,14.60
2023-05-17T18:59:36.302Z,14.50
2023-05-17T19:02:03.913Z,14.40
2023-05-17T19:04:32.193Z,14.30
2023-05-17T19:06:59.186Z,14.20
2023-05-17T19:09:26.778Z,14.20
2023-05-17T19:11:54.753Z,14.30
2023-05-17T19:14:22.383Z,14.50
2023-05-17T19:16:50.029Z,14.30
2023-05-17T19:19:17.677Z,14.20
2023-05-17T19:21:46.017Z,14.40
2023-05-17T19:24:13.632Z,14.40
2023-05-17T19:26:41.280Z,14.20
2023-05-17T19:29:08.903Z,14.00
2023-05-17T19:31:36.529Z,13.80
2023-05-17T19:34:04.158Z,13.90
2023-05-17T19:36:31.751Z,13.80
2023-05-17T19:38:59.351Z,13.60
2023-05-17T19:41:27.021Z,13.50
2023-05-17T19:43:54.636Z,13.60
2023-05-17T19:46:22.267Z,13.50
2023-05-17T19:48:49.913Z,13.30
2023-05-17T19:51:17.517Z,13.20
2023-05-17T19:53:53.521Z,13.10
2023-05-17T19:56:12.853Z,13.00
2023-05-17T19:58:40.460Z,13.10
2023-05-17T20:01:08.063Z,13.00
2023-05-17T20:03:35.839Z,13.20
2023-05-17T20:06:03.310Z,13.00
2023-05-17T20:08:30.918Z,12.90
2023-05-17T20:10:58.571Z,12.70
2023-05-17T20:13:26.181Z,12.60
2023-05-17T20:15:53.806Z,12.50
2023-05-17T20:18:22.231Z,12.20
2023-05-17T20:20:49.822Z,12.20
2023-05-17T20:23:17.474Z,12.10
2023-05-17T20:25:45.125Z,12.00
2023-05-17T20:28:13.522Z,11.90
2023-05-17T20:30:41.126Z,11.80
2023-05-17T20:33:10.656Z,11.80
2023-05-17T20:35:36.364Z,11.70
2023-05-17T20:38:04.007Z,11.60
2023-05-17T20:40:31.852Z,11.60
2023-05-17T20:42:59.225Z,11.70
2023-05-17T20:45:26.827Z,11.70
2023-05-17T20:47:54.551Z,11.60
2023-05-17T20:50:22.093Z,11.50
2023-05-17T20:52:49.730Z,11.30
2023-05-17T20:55:18.118Z,11.10
2023-05-17T20:57:46.039Z,11.10
2023-05-17T21:00:13.633Z,11.10
2023-05-17T21:02:41.355Z,11.00
2023-05-17T21:05:08.859Z,10.90
2023-05-17T21:07:37.231Z,10.80
2023-05-17T21:10:05.668Z,11.00
2023-05-17T21:12:33.281Z,11.00
2023-05-17T21:15:15.148Z,10.90
2023-05-17T21:17:30.085Z,10.80
2023-05-17T21:19:57.674Z,10.80
2023-05-17T21:22:25.276Z,10.80
2023-05-17T21:24:52.984Z,10.70
2023-05-17T21:27:20.565Z,10.90
2023-05-17T21:29:48.161Z,10.80
2023-05-17T21:32:15.784Z,10.70
2023-05-17T21:34:43.402Z,10.70
2023-05-17T21:37:11.026Z,10.60
2023-05-17T21:39:39.431Z,10.50
2023-05-17T21:42:07.046Z,10.50
2023-05-17T21:44:34.650Z,10.50
2023-05-17T21:47:02.343Z,10.50
2023-05-17T21:49:29.896Z,10.40
2023-05-17T21:51:57.508Z,10.40
2023-05-17T21:54:25.210Z,10.40
2023-05-17T21:56:52.833Z,10.30
2023-05-17T21:59:20.460Z,10.30
2023-05-17T22:01:48.188Z,10.30
2023-05-17T22:04:15.722Z,10.30
2023-05-17T22:06:44.094Z,10.20
2023-05-17T22:09:12.518Z,10.10
2023-05-17T22:11:40.120Z,10.10
2023-05-17T22:14:07.748Z,10.10
2023-05-17T22:16:35.385Z,10.00
2023-05-17T22:19:03.023Z,10.00
2023-05-17T22:21:30.599Z,9.90
2023-05-17T22:23:59.006Z,9.80
2023-05-17T22:26:26.606Z,9.80
2023-05-17T22:28:54.218Z,9.80
2023-05-17T22:31:21.879Z,9.70
2023-05-17T22:33:49.454Z,9.70
2023-05-17T22:36:17.055Z,9.70
2023-05-17T22:38:44.706Z,9.70
2023-05-17T22:41:12.318Z,9.60
2023-05-17T22:43:39.945Z,9.60
2023-05-17T22:46:07.622Z,9.80
2023-05-17T22:48:35.223Z,9.70
2023-05-17T22:51:02.820Z,9.90
2023-05-17T22:53:30.498Z,10.20
2023-05-17T22:55:58.124Z,10.10
2023-05-17T22:58:25.715Z,10.20
2023-05-17T23:00:53.437Z,10.10
2023-05-17T23:03:20.953Z,9.90
2023-05-17T23:05:48.541Z,10.00
2023-05-17T23:08:16.191Z,9.90
2023-05-17T23:10:44.591Z,9.50
2023-05-17T23:13:13.017Z,9.30
2023-05-17T23:15:40.720Z,9.30
2023-05-17T23:18:08.309Z,9.40
2023-05-17T23:20:35.845Z,9.30
2023-05-17T23:23:03.794Z,9.10
2023-05-17T23:25:31.574Z,9.20
2023-05-17T23:27:58.994Z,9.10
2023-05-17T23:30:26.651Z,9.00
2023-05-17T23:32:54.309Z,8.80
2023-05-17T23:35:21.882Z,9.00
2023-05-17T23:37:49.541Z,9.20
2023-05-17T23:40:17.154Z,9.10
2023-05-17T23:42:44.778Z,8.90
2023-05-17T23:45:12.429Z,8.80
2023-05-17T23:47:40.053Z,8.70
2023-05-17T23:50:08.372Z,8.60
2023-05-17T23:52:36.059Z,8.60
2023-05-17T23:55:03.670Z,8.50
2023-05-17T23:57:31.290Z,8.70
2023-05-17T23:59:58.951Z,8.70
